sensor_id;sensor_type;location;lat;lon;timestamp;pressure;altitude;pressure_sealevel;temperature
76007;BMP280;64699;0.000;0.000;2023-07-29T00:00:56;99764.56;;;21.78
76007;BMP280;64699;0.000;0.000;2023-07-29T00:03:21;99754.25;;;21.79
76007;BMP280;64699;0.000;0.000;2023-07-29T00:05:47;99772.84;;;21.78
76007;BMP280;64699;0.000;0.000;2023-07-29T00:08:12;99770.84;;;21.79
76007;BMP280;64699;0.000;0.000;2023-07-29T00:10:37;99772.84;;;21.78
76007;BMP280;64699;0.000;0.000;2023-07-29T00:13:04;99773.47;;;21.77
76007;BMP280;64699;0.000;0.000;2023-07-29T00:15:29;99776.22;;;21.77
76007;BMP280;64699;0.000;0.000;2023-07-29T00:17:54;99778.25;;;21.76
76007;BMP280;64699;0.000;0.000;2023-07-29T00:20:19;99779.00;;;21.77
76007;BMP280;64699;0.000;0.000;2023-07-29T00:22:45;99775.47;;;21.76
76007;BMP280;64699;0.000;0.000;2023-07-29T00:25:10;99783.78;;;21.76
76007;BMP280;64699;0.000;0.000;2023-07-29T00:27:35;99783.78;;;21.76
76007;BMP280;64699;0.000;0.000;2023-07-29T00:30:00;99784.13;;;21.80
76007;BMP280;64699;0.000;0.000;2023-07-29T00:32:27;99784.25;;;21.82
76007;BMP280;64699;0.000;0.000;2023-07-29T00:34:52;99782.06;;;21.81
76007;BMP280;64699;0.000;0.000;2023-07-29T00:37:17;99791.66;;;21.80
76007;BMP280;64699;0.000;0.000;2023-07-29T00:39:42;99797.75;;;21.78
76007;BMP280;64699;0.000;0.000;2023-07-29T00:42:08;99799.25;;;21.79
76007;BMP280;64699;0.000;0.000;2023-07-29T00:44:33;99797.94;;;21.80
76007;BMP280;64699;0.000;0.000;2023-07-29T00:46:58;99799.25;;;21.79
76007;BMP280;64699;0.000;0.000;2023-07-29T00:49:25;99797.06;;;21.78
76007;BMP280;64699;0.000;0.000;2023-07-29T00:51:50;99801.84;;;21.77
76007;BMP280;64699;0.000;0.000;2023-07-29T00:54:16;99801.84;;;21.77
76007;BMP280;64699;0.000;0.000;2023-07-29T00:56:41;99801.84;;;21.77
76007;BMP280;64699;0.000;0.000;2023-07-29T00:59:06;99791.53;;;21.78
76007;BMP280;64699;0.000;0.000;2023-07-29T01:01:32;99801.13;;;21.77
76007;BMP280;64699;0.000;0.000;2023-07-29T01:03:58;99804.59;;;21.77
76007;BMP280;64699;0.000;0.000;2023-07-29T01:06:26;99798.50;;;21.79
76007;BMP280;64699;0.000;0.000;2023-07-29T01:09:00;99797.94;;;21.80
76007;BMP280;64699;0.000;0.000;2023-07-29T01:13:58;99795.91;;;21.81
76007;BMP280;64699;0.000;0.000;2023-07-29T01:16:30;99804.78;;;21.79
76007;BMP280;64699;0.000;0.000;2023-07-29T01:18:55;99795.59;;;21.77
76007;BMP280;64699;0.000;0.000;2023-07-29T01:21:22;99801.84;;;21.77
76007;BMP280;64699;0.000;0.000;2023-07-29T01:23:47;99806.66;;;21.77
76007;BMP280;64699;0.000;0.000;2023-07-29T01:26:12;99806.66;;;21.77
76007;BMP280;64699;0.000;0.000;2023-07-29T01:28:38;99805.19;;;21.76
76007;BMP280;64699;0.000;0.000;2023-07-29T01:33:56;99805.91;;;21.76
76007;BMP280;64699;0.000;0.000;2023-07-29T01:36:22;99813.47;;;21.76
76007;BMP280;64699;0.000;0.000;2023-07-29T01:38:51;99814.06;;;21.74
76007;BMP280;64699;0.000;0.000;2023-07-29T01:41:17;99808.66;;;21.76
76007;BMP280;64699;0.000;0.000;2023-07-29T01:43:43;99815.50;;;21.75
76007;BMP280;64699;0.000;0.000;2023-07-29T01:46:12;99815.50;;;21.75
76007;BMP280;64699;0.000;0.000;2023-07-29T01:48:37;99812.19;;;21.77
76007;BMP280;64699;0.000;0.000;2023-07-29T01:51:03;99812.19;;;21.77
76007;BMP280;64699;0.000;0.000;2023-07-29T01:53:28;99816.41;;;21.78
76007;BMP280;64699;0.000;0.000;2023-07-29T01:55:53;99815.66;;;21.77
76007;BMP280;64699;0.000;0.000;2023-07-29T01:58:18;99818.41;;;21.77
76007;BMP280;64699;0.000;0.000;2023-07-29T02:00:43;99818.41;;;21.77
76007;BMP280;64699;0.000;0.000;2023-07-29T02:03:08;99826.72;;;21.77
76007;BMP280;64699;0.000;0.000;2023-07-29T02:05:34;99835.00;;;21.77
76007;BMP280;64699;0.000;0.000;2023-07-29T02:07:59;99840.53;;;21.77
76007;BMP280;64699;0.000;0.000;2023-07-29T02:10:24;99836.31;;;21.76
76007;BMP280;64699;0.000;0.000;2023-07-29T02:12:49;99839.06;;;21.76
76007;BMP280;64699;0.000;0.000;2023-07-29T02:15:15;99839.06;;;21.76
76007;BMP280;64699;0.000;0.000;2023-07-29T02:17:41;99838.34;;;21.76
76007;BMP280;64699;0.000;0.000;2023-07-29T02:20:06;99834.84;;;21.75
76007;BMP280;64699;0.000;0.000;2023-07-29T02:22:31;99837.59;;;21.75
76007;BMP280;64699;0.000;0.000;2023-07-29T02:24:56;99847.38;;;21.76
76007;BMP280;64699;0.000;0.000;2023-07-29T02:27:22;99841.84;;;21.76
76007;BMP280;64699;0.000;0.000;2023-07-29T02:29:47;99844.47;;;21.74
76007;BMP280;64699;0.000;0.000;2023-07-29T02:32:12;99840.38;;;21.75
76007;BMP280;64699;0.000;0.000;2023-07-29T02:34:37;99834.28;;;21.77
76007;BMP280;64699;0.000;0.000;2023-07-29T02:37:03;99844.06;;;21.78
76007;BMP280;64699;0.000;0.000;2023-07-29T02:39:28;99841.97;;;21.78
76007;BMP280;64699;0.000;0.000;2023-07-29T02:41:53;99844.59;;;21.76
76007;BMP280;64699;0.000;0.000;2023-07-29T02:44:20;99850.13;;;21.76
76007;BMP280;64699;0.000;0.000;2023-07-29T02:46:45;99845.91;;;21.75
76007;BMP280;64699;0.000;0.000;2023-07-29T02:49:10;99845.16;;;21.75
76007;BMP280;64699;0.000;0.000;2023-07-29T02:51:35;99850.00;;;21.74
76007;BMP280;64699;0.000;0.000;2023-07-29T02:54:01;99850.53;;;21.73
76007;BMP280;64699;0.000;0.000;2023-07-29T02:56:26;99854.78;;;21.74
76007;BMP280;64699;0.000;0.000;2023-07-29T02:58:51;99858.84;;;21.73
76007;BMP280;64699;0.000;0.000;2023-07-29T03:01:17;99854.78;;;21.74
76007;BMP280;64699;0.000;0.000;2023-07-29T03:03:42;99856.06;;;21.73
76007;BMP280;64699;0.000;0.000;2023-07-29T03:06:08;99862.91;;;21.72
76007;BMP280;64699;0.000;0.000;2023-07-29T03:08:34;99869.88;;;21.73
76007;BMP280;64699;0.000;0.000;2023-07-29T03:11:04;99865.09;;;21.73
76007;BMP280;64699;0.000;0.000;2023-07-29T03:13:30;99865.09;;;21.73
76007;BMP280;64699;0.000;0.000;2023-07-29T03:16:03;99873.41;;;21.73
76007;BMP280;64699;0.000;0.000;2023-07-29T03:18:29;99876.00;;;21.71
76007;BMP280;64699;0.000;0.000;2023-07-29T03:20:55;99873.22;;;21.71
76007;BMP280;64699;0.000;0.000;2023-07-29T03:23:20;99871.03;;;21.70
76007;BMP280;64699;0.000;0.000;2023-07-29T03:25:47;99873.06;;;21.69
76007;BMP280;64699;0.000;0.000;2023-07-29T03:28:13;99871.59;;;21.68
76007;BMP280;64699;0.000;0.000;2023-07-29T03:30:38;99879.88;;;21.68
76007;BMP280;64699;0.000;0.000;2023-07-29T03:33:03;99872.13;;;21.67
76007;BMP280;64699;0.000;0.000;2023-07-29T03:35:29;99875.66;;;21.67
76007;BMP280;64699;0.000;0.000;2023-07-29T03:37:55;99875.66;;;21.67
76007;BMP280;64699;0.000;0.000;2023-07-29T03:40:20;99870.88;;;21.68
76007;BMP280;64699;0.000;0.000;2023-07-29T03:42:45;99878.41;;;21.67
76007;BMP280;64699;0.000;0.000;2023-07-29T03:45:10;99887.38;;;21.75
76007;BMP280;64699;0.000;0.000;2023-07-29T03:47:36;99886.97;;;21.79
76007;BMP280;64699;0.000;0.000;2023-07-29T03:50:02;99889.19;;;21.80
76007;BMP280;64699;0.000;0.000;2023-07-29T03:52:27;99890.13;;;21.75
76007;BMP280;64699;0.000;0.000;2023-07-29T03:54:52;99888.34;;;21.70
76007;BMP280;64699;0.000;0.000;2023-07-29T03:57:17;99893.56;;;21.66
76007;BMP280;64699;0.000;0.000;2023-07-29T03:59:43;99894.66;;;21.63
76007;BMP280;64699;0.000;0.000;2023-07-29T04:02:08;99894.50;;;21.61
76007;BMP280;64699;0.000;0.000;2023-07-29T04:04:34;99898.56;;;21.60
76007;BMP280;64699;0.000;0.000;2023-07-29T04:06:59;99902.63;;;21.59
76007;BMP280;64699;0.000;0.000;2023-07-29T04:09:25;99905.38;;;21.59
76007;BMP280;64699;0.000;0.000;2023-07-29T04:11:50;99904.66;;;21.59
76007;BMP280;64699;0.000;0.000;2023-07-29T04:14:15;99911.50;;;21.58
76007;BMP280;64699;0.000;0.000;2023-07-29T04:16:41;99908.00;;;21.58
76007;BMP280;64699;0.000;0.000;2023-07-29T04:19:06;99913.53;;;21.58
76007;BMP280;64699;0.000;0.000;2023-07-29T04:21:31;99910.75;;;21.58
76007;BMP280;64699;0.000;0.000;2023-07-29T04:23:56;99922.53;;;21.58
76007;BMP280;64699;0.000;0.000;2023-07-29T04:26:22;99923.28;;;21.59
76007;BMP280;64699;0.000;0.000;2023-07-29T04:28:47;99920.53;;;21.59
76007;BMP280;64699;0.000;0.000;2023-07-29T04:31:12;99930.25;;;21.59
76007;BMP280;64699;0.000;0.000;2023-07-29T04:33:37;99919.22;;;21.59
76007;BMP280;64699;0.000;0.000;2023-07-29T04:36:02;99936.53;;;21.60
76007;BMP280;64699;0.000;0.000;2023-07-29T04:38:30;99934.34;;;21.59
76007;BMP280;64699;0.000;0.000;2023-07-29T04:40:55;99934.34;;;21.59
76007;BMP280;64699;0.000;0.000;2023-07-29T04:43:21;99936.38;;;21.58
76007;BMP280;64699;0.000;0.000;2023-07-29T04:45:46;99943.94;;;21.58
76007;BMP280;64699;0.000;0.000;2023-07-29T04:48:11;99945.41;;;21.59
76007;BMP280;64699;0.000;0.000;2023-07-29T04:50:36;99946.13;;;21.59
76007;BMP280;64699;0.000;0.000;2023-07-29T04:53:01;99952.38;;;21.59
76007;BMP280;64699;0.000;0.000;2023-07-29T04:55:27;99951.66;;;21.59
76007;BMP280;64699;0.000;0.000;2023-07-29T04:57:52;99955.13;;;21.59
76007;BMP280;64699;0.000;0.000;2023-07-29T05:00:17;99949.63;;;21.59
76007;BMP280;64699;0.000;0.000;2023-07-29T05:02:42;99960.66;;;21.59
76007;BMP280;64699;0.000;0.000;2023-07-29T05:05:08;99962.72;;;21.59
76007;BMP280;64699;0.000;0.000;2023-07-29T05:07:33;99970.44;;;21.60
76007;BMP280;64699;0.000;0.000;2023-07-29T05:09:58;99970.44;;;21.60
76007;BMP280;64699;0.000;0.000;2023-07-29T05:12:23;99977.44;;;21.61
76007;BMP280;64699;0.000;0.000;2023-07-29T05:14:48;99975.97;;;21.60
76007;BMP280;64699;0.000;0.000;2023-07-29T05:17:14;99976.13;;;21.62
76007;BMP280;64699;0.000;0.000;2023-07-29T05:19:39;99975.97;;;21.60
76007;BMP280;64699;0.000;0.000;2023-07-29T05:22:04;99975.25;;;21.60
76007;BMP280;64699;0.000;0.000;2023-07-29T05:24:29;99972.47;;;21.60
76007;BMP280;64699;0.000;0.000;2023-07-29T05:26:55;99975.25;;;21.60
76007;BMP280;64699;0.000;0.000;2023-07-29T05:29:20;99971.91;;;21.61
76007;BMP280;64699;0.000;0.000;2023-07-29T05:31:45;99976.72;;;21.61
76007;BMP280;64699;0.000;0.000;2023-07-29T05:34:10;99975.97;;;21.60
76007;BMP280;64699;0.000;0.000;2023-07-29T05:36:35;99971.91;;;21.61
76007;BMP280;64699;0.000;0.000;2023-07-29T05:39:01;99980.78;;;21.60
76007;BMP280;64699;0.000;0.000;2023-07-29T05:41:26;99978.19;;;21.62
76007;BMP280;64699;0.000;0.000;2023-07-29T05:43:53;99980.19;;;21.61
76007;BMP280;64699;0.000;0.000;2023-07-29T05:46:18;99977.44;;;21.61
76007;BMP280;64699;0.000;0.000;2023-07-29T05:48:43;99981.50;;;21.60
76007;BMP280;64699;0.000;0.000;2023-07-29T05:51:08;99978.72;;;21.60
76007;BMP280;64699;0.000;0.000;2023-07-29T05:53:34;99980.34;;;21.63
76007;BMP280;64699;0.000;0.000;2023-07-29T05:55:59;99980.34;;;21.63
76007;BMP280;64699;0.000;0.000;2023-07-29T05:58:24;99981.84;;;21.64
76007;BMP280;64699;0.000;0.000;2023-07-29T06:00:49;99982.03;;;21.66
76007;BMP280;64699;0.000;0.000;2023-07-29T06:03:14;99987.38;;;21.64
76007;BMP280;64699;0.000;0.000;2023-07-29T06:05:40;99988.84;;;21.65
76007;BMP280;64699;0.000;0.000;2023-07-29T06:08:05;99998.63;;;21.66
76007;BMP280;64699;0.000;0.000;2023-07-29T06:10:30;100000.81;;;21.68
76007;BMP280;64699;0.000;0.000;2023-07-29T06:12:55;100002.06;;;21.67
76007;BMP280;64699;0.000;0.000;2023-07-29T06:15:21;99999.91;;;21.65
76007;BMP280;64699;0.000;0.000;2023-07-29T06:17:47;100017.97;;;21.66
76007;BMP280;64699;0.000;0.000;2023-07-29T06:20:13;100019.41;;;21.67
76007;BMP280;64699;0.000;0.000;2023-07-29T06:22:38;100016.66;;;21.67
76007;BMP280;64699;0.000;0.000;2023-07-29T06:25:03;100034.00;;;21.68
76007;BMP280;64699;0.000;0.000;2023-07-29T06:27:29;100024.78;;;21.65
76007;BMP280;64699;0.000;0.000;2023-07-29T06:29:54;100025.69;;;21.68
76007;BMP280;64699;0.000;0.000;2023-07-29T06:32:19;100033.41;;;21.69
76007;BMP280;64699;0.000;0.000;2023-07-29T06:34:44;100032.13;;;21.70
76007;BMP280;64699;0.000;0.000;2023-07-29T06:37:09;100035.94;;;21.75
76007;BMP280;64699;0.000;0.000;2023-07-29T06:39:35;100036.69;;;21.75
76007;BMP280;64699;0.000;0.000;2023-07-29T06:42:00;100042.97;;;21.76
76007;BMP280;64699;0.000;0.000;2023-07-29T06:44:25;100035.41;;;21.76
76007;BMP280;64699;0.000;0.000;2023-07-29T06:46:50;100045.16;;;21.77
76007;BMP280;64699;0.000;0.000;2023-07-29T06:49:16;100049.38;;;21.78
76007;BMP280;64699;0.000;0.000;2023-07-29T06:51:41;100051.44;;;21.78
76007;BMP280;64699;0.000;0.000;2023-07-29T06:54:06;100052.00;;;21.76
76007;BMP280;64699;0.000;0.000;2023-07-29T06:56:31;100050.69;;;21.77
76007;BMP280;64699;0.000;0.000;2023-07-29T06:58:56;100046.59;;;21.78
76007;BMP280;64699;0.000;0.000;2023-07-29T07:01:22;100037.03;;;21.79
76007;BMP280;64699;0.000;0.000;2023-07-29T07:03:47;100042.56;;;21.79
76007;BMP280;64699;0.000;0.000;2023-07-29T07:06:12;100036.47;;;21.81
76007;BMP280;64699;0.000;0.000;2023-07-29T07:08:37;100039.06;;;21.79
76007;BMP280;64699;0.000;0.000;2023-07-29T07:11:02;100046.22;;;21.58
76007;BMP280;64699;0.000;0.000;2023-07-29T07:13:28;100041.31;;;21.41
76007;BMP280;64699;0.000;0.000;2023-07-29T07:15:56;100045.75;;;21.37
76007;BMP280;64699;0.000;0.000;2023-07-29T07:18:21;100053.13;;;21.34
76007;BMP280;64699;0.000;0.000;2023-07-29T07:20:50;100049.50;;;21.24
76007;BMP280;64699;0.000;0.000;2023-07-29T07:23:16;100043.94;;;21.32
76007;BMP280;64699;0.000;0.000;2023-07-29T07:25:41;100039.38;;;21.27
76007;BMP280;64699;0.000;0.000;2023-07-29T07:28:07;100041.91;;;21.25
76007;BMP280;64699;0.000;0.000;2023-07-29T07:30:32;100041.91;;;21.25
76007;BMP280;64699;0.000;0.000;2023-07-29T07:32:58;100035.84;;;21.26
76007;BMP280;64699;0.000;0.000;2023-07-29T07:35:28;100042.47;;;21.31
76007;BMP280;64699;0.000;0.000;2023-07-29T07:37:53;100033.63;;;21.32
76007;BMP280;64699;0.000;0.000;2023-07-29T07:40:19;100040.28;;;21.29
76007;BMP280;64699;0.000;0.000;2023-07-29T07:42:44;100032.88;;;21.32
76007;BMP280;64699;0.000;0.000;2023-07-29T07:45:09;100037.31;;;21.35
76007;BMP280;64699;0.000;0.000;2023-07-29T07:47:34;100038.59;;;21.34
76007;BMP280;64699;0.000;0.000;2023-07-29T07:49:59;100046.88;;;21.34
76007;BMP280;64699;0.000;0.000;2023-07-29T07:52:25;100040.22;;;21.37
76007;BMP280;64699;0.000;0.000;2023-07-29T07:54:53;100038.41;;;21.39
76007;BMP280;64699;0.000;0.000;2023-07-29T07:57:20;100043.53;;;21.43
76007;BMP280;64699;0.000;0.000;2023-07-29T07:59:45;100047.41;;;21.40
76007;BMP280;64699;0.000;0.000;2023-07-29T08:02:10;100043.69;;;21.45
76007;BMP280;64699;0.000;0.000;2023-07-29T08:04:36;100041.97;;;21.57
76007;BMP280;64699;0.000;0.000;2023-07-29T08:07:01;100043.66;;;21.52
76007;BMP280;64699;0.000;0.000;2023-07-29T08:09:26;100042.91;;;21.52
76007;BMP280;64699;0.000;0.000;2023-07-29T08:11:51;100044.31;;;21.36
76007;BMP280;64699;0.000;0.000;2023-07-29T08:14:17;100034.69;;;21.37
76007;BMP280;64699;0.000;0.000;2023-07-29T08:16:42;100037.66;;;21.39
76007;BMP280;64699;0.000;0.000;2023-07-29T08:19:07;100040.22;;;21.37
76007;BMP280;64699;0.000;0.000;2023-07-29T08:21:34;100034.88;;;21.39
76007;BMP280;64699;0.000;0.000;2023-07-29T08:24:00;100031.19;;;21.36
76007;BMP280;64699;0.000;0.000;2023-07-29T08:26:25;100038.59;;;21.34
76007;BMP280;64699;0.000;0.000;2023-07-29T08:28:50;100030.63;;;21.38
76007;BMP280;64699;0.000;0.000;2023-07-29T08:31:15;100032.88;;;21.39
76007;BMP280;64699;0.000;0.000;2023-07-29T08:33:40;100029.53;;;21.41
76007;BMP280;64699;0.000;0.000;2023-07-29T08:36:06;100031.72;;;21.42
76007;BMP280;64699;0.000;0.000;2023-07-29T08:38:31;100025.47;;;21.42
76007;BMP280;64699;0.000;0.000;2023-07-29T08:41:03;100032.09;;;21.46
76007;BMP280;64699;0.000;0.000;2023-07-29T08:43:30;100021.75;;;21.47
76007;BMP280;64699;0.000;0.000;2023-07-29T08:45:56;100028.03;;;21.47
76007;BMP280;64699;0.000;0.000;2023-07-29T08:48:24;100020.66;;;21.50
76007;BMP280;64699;0.000;0.000;2023-07-29T08:50:51;100019.69;;;21.55
76007;BMP280;64699;0.000;0.000;2023-07-29T08:53:17;100014.34;;;21.57
76007;BMP280;64699;0.000;0.000;2023-07-29T08:55:42;100010.66;;;21.54
76007;BMP280;64699;0.000;0.000;2023-07-29T08:58:07;100007.75;;;21.45
76007;BMP280;64699;0.000;0.000;2023-07-29T09:00:33;100018.13;;;21.37
76007;BMP280;64699;0.000;0.000;2023-07-29T09:02:59;100010.00;;;21.39
76007;BMP280;64699;0.000;0.000;2023-07-29T09:05:29;100012.38;;;21.42
76007;BMP280;64699;0.000;0.000;2023-07-29T09:07:54;100009.06;;;21.44
76007;BMP280;64699;0.000;0.000;2023-07-29T09:10:23;100013.47;;;21.47
76007;BMP280;64699;0.000;0.000;2023-07-29T09:12:50;100010.88;;;21.49
76007;BMP280;64699;0.000;0.000;2023-07-29T09:15:32;100005.94;;;21.47
76007;BMP280;64699;0.000;0.000;2023-07-29T09:17:57;100010.69;;;21.47
76007;BMP280;64699;0.000;0.000;2023-07-29T09:20:26;100005.53;;;21.51
76007;BMP280;64699;0.000;0.000;2023-07-29T09:22:52;100011.38;;;21.55
76007;BMP280;64699;0.000;0.000;2023-07-29T09:25:22;100015.59;;;21.56
76007;BMP280;64699;0.000;0.000;2023-07-29T09:27:47;100006.03;;;21.57
76007;BMP280;64699;0.000;0.000;2023-07-29T09:30:16;100008.06;;;21.56
76007;BMP280;64699;0.000;0.000;2023-07-29T09:32:41;100005.47;;;21.58
76007;BMP280;64699;0.000;0.000;2023-07-29T09:35:10;100007.66;;;21.59
76007;BMP280;64699;0.000;0.000;2023-07-29T09:37:36;100000.69;;;21.59
76007;BMP280;64699;0.000;0.000;2023-07-29T09:40:02;99992.41;;;21.59
76007;BMP280;64699;0.000;0.000;2023-07-29T09:42:28;100002.88;;;21.60
76007;BMP280;64699;0.000;0.000;2023-07-29T09:44:53;99994.03;;;21.61
76007;BMP280;64699;0.000;0.000;2023-07-29T09:47:19;99992.56;;;21.60
76007;BMP280;64699;0.000;0.000;2023-07-29T09:49:44;99980.78;;;21.60
76007;BMP280;64699;0.000;0.000;2023-07-29T09:52:09;99982.97;;;21.61
76007;BMP280;64699;0.000;0.000;2023-07-29T09:54:36;99978.72;;;21.60
76007;BMP280;64699;0.000;0.000;2023-07-29T09:57:01;99984.66;;;21.57
76007;BMP280;64699;0.000;0.000;2023-07-29T09:59:26;99981.34;;;21.59
76007;BMP280;64699;0.000;0.000;2023-07-29T10:01:52;99985.19;;;21.56
76007;BMP280;64699;0.000;0.000;2023-07-29T10:04:17;99980.19;;;21.61
76007;BMP280;64699;0.000;0.000;2023-07-29T10:06:44;99980.34;;;21.63
76007;BMP280;64699;0.000;0.000;2023-07-29T10:09:16;99975.16;;;21.67
76007;BMP280;64699;0.000;0.000;2023-07-29T10:11:42;99986.22;;;21.67
76007;BMP280;64699;0.000;0.000;2023-07-29T10:14:07;99978.13;;;21.69
76007;BMP280;64699;0.000;0.000;2023-07-29T10:16:34;99981.63;;;21.70
76007;BMP280;64699;0.000;0.000;2023-07-29T10:19:00;99964.13;;;21.67
76007;BMP280;64699;0.000;0.000;2023-07-29T10:21:26;99969.25;;;21.71
76007;BMP280;64699;0.000;0.000;2023-07-29T10:23:52;99975.06;;;21.82
76007;BMP280;64699;0.000;0.000;2023-07-29T10:26:20;99971.94;;;21.78
76007;BMP280;64699;0.000;0.000;2023-07-29T10:28:47;99967.41;;;21.73
76007;BMP280;64699;0.000;0.000;2023-07-29T10:31:13;99970.72;;;21.72
76007;BMP280;64699;0.000;0.000;2023-07-29T10:33:40;99974.78;;;21.71
76007;BMP280;64699;0.000;0.000;2023-07-29T10:36:05;99971.47;;;21.72
76007;BMP280;64699;0.000;0.000;2023-07-29T10:38:31;99972.59;;;21.69
76007;BMP280;64699;0.000;0.000;2023-07-29T10:40:56;99962.81;;;21.68
76007;BMP280;64699;0.000;0.000;2023-07-29T10:43:26;99965.59;;;21.68
76007;BMP280;64699;0.000;0.000;2023-07-29T10:45:52;99960.06;;;21.68
76007;BMP280;64699;0.000;0.000;2023-07-29T10:53:42;99978.50;;;21.66
76007;BMP280;64699;0.000;0.000;2023-07-29T10:56:07;99971.66;;;21.67
76007;BMP280;64699;0.000;0.000;2023-07-29T10:58:32;99965.97;;;21.65
76007;BMP280;64699;0.000;0.000;2023-07-29T11:00:57;99965.25;;;21.64
76007;BMP280;64699;0.000;0.000;2023-07-29T11:03:22;99960.47;;;21.65
76007;BMP280;64699;0.000;0.000;2023-07-29T11:05:53;99952.91;;;21.65
76007;BMP280;64699;0.000;0.000;2023-07-29T11:08:29;99947.88;;;21.71
76007;BMP280;64699;0.000;0.000;2023-07-29T11:11:01;99945.50;;;21.68
76007;BMP280;64699;0.000;0.000;2023-07-29T11:13:27;99948.84;;;21.66
76007;BMP280;64699;0.000;0.000;2023-07-29T11:15:53;99944.63;;;21.65
76007;BMP280;64699;0.000;0.000;2023-07-29T11:18:20;99946.44;;;21.63
76007;BMP280;64699;0.000;0.000;2023-07-29T11:20:45;99941.50;;;21.61
76007;BMP280;64699;0.000;0.000;2023-07-29T11:23:11;99931.72;;;21.60
76007;BMP280;64699;0.000;0.000;2023-07-29T11:25:36;99942.97;;;21.62
76007;BMP280;64699;0.000;0.000;2023-07-29T11:28:01;99928.44;;;21.62
76007;BMP280;64699;0.000;0.000;2023-07-29T11:30:28;99931.72;;;21.60
76007;BMP280;64699;0.000;0.000;2023-07-29T11:32:56;99926.94;;;21.61
76007;BMP280;64699;0.000;0.000;2023-07-29T11:35:21;99922.91;;;21.62
76007;BMP280;64699;0.000;0.000;2023-07-29T11:37:47;99928.44;;;21.62
76007;BMP280;64699;0.000;0.000;2023-07-29T11:40:13;99922.16;;;21.61
76007;BMP280;64699;0.000;0.000;2023-07-29T11:42:39;99921.44;;;21.61
76007;BMP280;64699;0.000;0.000;2023-07-29T11:45:04;99918.09;;;21.62
76007;BMP280;64699;0.000;0.000;2023-07-29T11:47:33;99916.63;;;21.61
76007;BMP280;64699;0.000;0.000;2023-07-29T11:50:02;99913.69;;;21.59
76007;BMP280;64699;0.000;0.000;2023-07-29T11:52:28;99901.31;;;21.60
76007;BMP280;64699;0.000;0.000;2023-07-29T11:54:53;99901.31;;;21.60
76007;BMP280;64699;0.000;0.000;2023-07-29T11:57:19;99904.84;;;21.61
76007;BMP280;64699;0.000;0.000;2023-07-29T11:59:45;99898.03;;;21.62
76007;BMP280;64699;0.000;0.000;2023-07-29T12:02:12;99904.84;;;21.61
76007;BMP280;64699;0.000;0.000;2023-07-29T12:04:38;99899.84;;;21.59
76007;BMP280;64699;0.000;0.000;2023-07-29T12:07:04;99891.56;;;21.59
76007;BMP280;64699;0.000;0.000;2023-07-29T12:09:29;99885.31;;;21.59
76007;BMP280;64699;0.000;0.000;2023-07-29T12:11:55;99886.56;;;21.65
76007;BMP280;64699;0.000;0.000;2023-07-29T12:14:21;99889.31;;;21.65
76007;BMP280;64699;0.000;0.000;2023-07-29T12:16:47;99881.56;;;21.64
76007;BMP280;64699;0.000;0.000;2023-07-29T12:19:13;99873.84;;;21.62
76007;BMP280;64699;0.000;0.000;2023-07-29T12:21:38;99876.41;;;21.68
76007;BMP280;64699;0.000;0.000;2023-07-29T12:24:05;99877.28;;;21.70
76007;BMP280;64699;0.000;0.000;2023-07-29T12:26:30;99870.88;;;21.68
76007;BMP280;64699;0.000;0.000;2023-07-29T12:28:55;99870.28;;;21.69
76007;BMP280;64699;0.000;0.000;2023-07-29T12:31:32;99859.81;;;21.68
76007;BMP280;64699;0.000;0.000;2023-07-29T12:33:58;99866.47;;;21.65
76007;BMP280;64699;0.000;0.000;2023-07-29T12:36:27;99867.75;;;21.64
76007;BMP280;64699;0.000;0.000;2023-07-29T12:38:52;99868.34;;;21.62
76007;BMP280;64699;0.000;0.000;2023-07-29T12:41:17;99854.09;;;21.66
76007;BMP280;64699;0.000;0.000;2023-07-29T12:43:42;99859.97;;;21.70
76007;BMP280;64699;0.000;0.000;2023-07-29T12:46:07;99852.25;;;21.68
76007;BMP280;64699;0.000;0.000;2023-07-29T12:48:33;99853.53;;;21.67
76007;BMP280;64699;0.000;0.000;2023-07-29T12:50:58;99853.38;;;21.65
76007;BMP280;64699;0.000;0.000;2023-07-29T12:53:23;99852.78;;;21.67
76007;BMP280;64699;0.000;0.000;2023-07-29T12:55:48;99851.34;;;21.66
76007;BMP280;64699;0.000;0.000;2023-07-29T12:58:13;99854.84;;;21.66
76007;BMP280;64699;0.000;0.000;2023-07-29T13:00:39;99850.75;;;21.67
76007;BMP280;64699;0.000;0.000;2023-07-29T13:03:04;99859.06;;;21.67
76007;BMP280;64699;0.000;0.000;2023-07-29T13:05:30;99850.63;;;21.65
76007;BMP280;64699;0.000;0.000;2023-07-29T13:07:55;99845.63;;;21.64
76007;BMP280;64699;0.000;0.000;2023-07-29T13:10:21;99844.03;;;21.61
76007;BMP280;64699;0.000;0.000;2023-07-29T13:12:46;99842.22;;;21.56
76007;BMP280;64699;0.000;0.000;2023-07-29T13:15:11;99839.28;;;21.54
76007;BMP280;64699;0.000;0.000;2023-07-29T13:17:36;99846.66;;;21.52
76007;BMP280;64699;0.000;0.000;2023-07-29T13:20:02;99840.41;;;21.51
76007;BMP280;64699;0.000;0.000;2023-07-29T13:22:28;99838.94;;;21.50
76007;BMP280;64699;0.000;0.000;2023-07-29T13:24:53;99835.25;;;21.48
76007;BMP280;64699;0.000;0.000;2023-07-29T13:27:19;99818.69;;;21.48
76007;BMP280;64699;0.000;0.000;2023-07-29T13:29:48;99822.78;;;21.47
76007;BMP280;64699;0.000;0.000;2023-07-29T13:32:21;99829.72;;;21.48
76007;BMP280;64699;0.000;0.000;2023-07-29T13:34:46;99815.78;;;21.46
76007;BMP280;64699;0.000;0.000;2023-07-29T13:37:11;99819.81;;;21.45
76007;BMP280;64699;0.000;0.000;2023-07-29T13:39:36;99815.78;;;21.46
76007;BMP280;64699;0.000;0.000;2023-07-29T13:42:02;99808.78;;;21.45
76007;BMP280;64699;0.000;0.000;2023-07-29T13:44:27;99810.78;;;21.44
76007;BMP280;64699;0.000;0.000;2023-07-29T13:46:52;99814.31;;;21.45
76007;BMP280;64699;0.000;0.000;2023-07-29T13:49:17;99811.38;;;21.43
76007;BMP280;64699;0.000;0.000;2023-07-29T13:51:43;99800.34;;;21.43
76007;BMP280;64699;0.000;0.000;2023-07-29T13:54:08;99804.41;;;21.42
76007;BMP280;64699;0.000;0.000;2023-07-29T13:56:33;99798.13;;;21.41
76007;BMP280;64699;0.000;0.000;2023-07-29T13:58:58;99804.41;;;21.42
76007;BMP280;64699;0.000;0.000;2023-07-29T14:01:23;99797.41;;;21.41
76007;BMP280;64699;0.000;0.000;2023-07-29T14:03:49;99789.84;;;21.41
76007;BMP280;64699;0.000;0.000;2023-07-29T14:06:14;99783.59;;;21.41
76007;BMP280;64699;0.000;0.000;2023-07-29T14:08:39;99783.59;;;21.41
76007;BMP280;64699;0.000;0.000;2023-07-29T14:11:06;99777.31;;;21.40
76007;BMP280;64699;0.000;0.000;2023-07-29T14:13:32;99779.34;;;21.40
76007;BMP280;64699;0.000;0.000;2023-07-29T14:15:57;99775.88;;;21.39
76007;BMP280;64699;0.000;0.000;2023-07-29T14:18:22;99770.34;;;21.39
76007;BMP280;64699;0.000;0.000;2023-07-29T14:20:47;99764.06;;;21.39